GCLP

Gran Canaria Airport

Gran Canaria Island, Spain
METAR GCLP 200000Z 02010KT 9999 SCT018 23/21 Q1020 NOSIG
Observed Flight Rules
Sep-20 @ 00:00 UTC (40 minutes ago) Visual Flight Rules
Wind Visibility Clouds
20° at 10 knots 10,000+ meters
  • Scattered at 1,800' AGL
Temperatures Readings
Current 23°C / 73°F
Dewpoint 21°C / 70°F
Humidity 89%
Altimeter 30.12" Hg
Pressure 1020 hPa
Elevation 25
METAR GCLP 200000Z 02010KT 9999 SCT018 23/21 Q1020 NOSIG
Observed Flight Rules
Sep-20 @ 00:00 UTC
(40 minutes ago)
VFR
Wind Visibility
20° at 10 knots 10,000+ meters
Clouds
  • Scattered at 1,800' AGL
Temperature Dewpoint
23°C / 73°F 21°C / 70°F
Humidity Altimeter Pressure
89% 30.12" Hg 1020 hPa